Time;durP1;ratioP1;P1;durP2;ratioP2;P2;SDS_P1;SDS_P2;PMS_P1;PMS_P2;Temp;Humidity;BMP_temperature;BMP_pressure;BME280_temperature;BME280_humidity;BME280_pressure;Samples;Min_cycle;Max_cycle;Signal;HPM_P1;HPM_P2
2022/03/20 00:01:18;;;;;;;40.97;18.38;;;2.40;99.90;;;0.74;100.00;104024.97;4949669;28;20733;-74
2022/03/20 00:03:44;;;;;;;45.20;18.88;;;2.30;99.90;;;0.66;100.00;104021.13;4942594;28;20085;-73
2022/03/20 00:06:10;;;;;;;38.95;16.88;;;2.30;99.90;;;0.61;100.00;104020.91;4950804;28;20089;-73
2022/03/20 00:08:36;;;;;;;42.55;18.23;;;2.30;99.90;;;0.59;100.00;104022.53;4925670;28;20576;-73
2022/03/20 00:11:04;;;;;;;45.85;18.02;;;2.30;99.90;;;0.61;100.00;104020.03;4934232;28;20055;-74
2022/03/20 00:13:30;;;;;;;47.10;18.85;;;2.20;99.90;;;0.58;100.00;104023.38;4949043;28;20549;-73
2022/03/20 00:15:57;;;;;;;46.42;18.80;;;2.20;99.90;;;0.55;100.00;104022.31;4940973;28;20077;-74
2022/03/20 00:18:26;;;;;;;41.85;16.90;;;2.20;99.90;;;0.50;100.00;104019.53;4951215;28;20086;-73
2022/03/20 00:20:58;;;;;;;46.92;19.15;;;2.10;99.90;;;0.47;100.00;104011.56;4951567;28;20035;-73
2022/03/20 00:23:25;;;;;;;36.65;14.90;;;2.10;99.90;;;0.46;100.00;104008.94;4952445;28;20058;-72
2022/03/20 00:25:54;;;;;;;39.33;18.73;;;2.20;99.90;;;0.49;100.00;104007.34;4950982;28;20034;-72
2022/03/20 00:28:24;;;;;;;40.13;17.88;;;2.20;99.90;;;0.52;100.00;104009.19;4951230;28;20554;-72
2022/03/20 00:30:52;;;;;;;43.80;19.38;;;2.20;99.90;;;0.57;100.00;104008.63;4949926;28;20050;-72
2022/03/20 00:33:18;;;;;;;47.28;20.27;;;2.20;99.90;;;0.54;100.00;104004.97;4953222;28;20046;-72
2022/03/20 00:35:44;;;;;;;45.92;20.33;;;2.20;99.90;;;0.52;100.00;104016.97;4961267;28;20030;-72
2022/03/20 00:38:11;;;;;;;52.42;20.90;;;2.20;99.90;;;0.52;100.00;104007.53;4949901;28;20043;-72
2022/03/20 00:40:37;;;;;;;50.53;20.17;;;2.20;99.90;;;0.52;100.00;104010.13;4949682;28;20034;-72
2022/03/20 00:43:06;;;;;;;52.72;20.77;;;2.10;99.90;;;0.46;100.00;104003.75;4951356;28;20053;-72
2022/03/20 00:45:34;;;;;;;57.88;21.80;;;2.10;99.90;;;0.43;100.00;104007.06;4932695;28;20086;-72
2022/03/20 00:48:01;;;;;;;50.92;21.40;;;2.00;99.90;;;0.38;100.00;104000.78;4948432;28;20038;-71
2022/03/20 00:50:28;;;;;;;60.63;21.50;;;2.00;99.90;;;0.41;100.00;103993.13;4934288;28;20035;-72
2022/03/20 00:52:56;;;;;;;62.10;23.05;;;2.00;99.90;;;0.36;100.00;103992.91;4947754;28;20089;-72
2022/03/20 00:55:21;;;;;;;59.95;22.35;;;2.00;99.90;;;0.35;100.00;103985.97;4948981;28;20054;-71
2022/03/20 00:57:47;;;;;;;59.60;22.55;;;2.00;99.90;;;0.33;100.00;103984.13;4933398;28;20180;-72
2022/03/20 01:00:16;;;;;;;67.10;22.35;;;2.00;99.90;;;0.32;100.00;103990.09;4949259;28;20396;-72
2022/03/20 01:02:45;;;;;;;68.82;21.83;;;1.90;99.90;;;0.28;100.00;103985.59;4949431;28;20081;-72
2022/03/20 01:05:12;;;;;;;68.82;23.25;;;1.90;99.90;;;0.26;100.00;103979.44;4941722;28;20477;-72
2022/03/20 01:07:39;;;;;;;64.47;22.30;;;1.90;99.90;;;0.18;100.00;103974.78;4948899;28;20046;-71
2022/03/20 01:10:07;;;;;;;58.50;22.15;;;1.80;99.90;;;0.16;100.00;103975.53;4951206;28;20143;-72
2022/03/20 01:12:34;;;;;;;73.55;21.63;;;1.80;99.90;;;0.17;100.00;103972.09;4934552;28;20034;-71
2022/03/20 01:15:03;;;;;;;64.03;23.00;;;1.80;99.90;;;0.19;100.00;103973.06;4949327;28;20065;-72
2022/03/20 01:17:29;;;;;;;65.63;23.75;;;1.90;99.90;;;0.20;100.00;103970.56;4954287;28;20364;-72
2022/03/20 01:19:55;;;;;;;64.78;23.38;;;1.80;99.90;;;0.24;100.00;103974.19;4953882;28;21684;-72
2022/03/20 01:22:21;;;;;;;61.42;22.90;;;1.90;99.90;;;0.22;100.00;103961.97;4952870;28;20061;-72
2022/03/20 01:24:47;;;;;;;59.63;21.92;;;1.80;99.90;;;0.16;100.00;103958.28;4946095;28;20073;-72
2022/03/20 01:27:13;;;;;;;56.72;21.75;;;1.80;99.90;;;0.18;100.00;103959.22;4954053;28;20543;-72
2022/03/20 01:29:40;;;;;;;56.25;21.75;;;1.80;99.90;;;0.19;100.00;103955.84;4951298;28;20162;-73
2022/03/20 01:32:06;;;;;;;69.35;23.00;;;1.80;99.90;;;0.18;100.00;103959.22;4952112;28;20678;-72
2022/03/20 01:34:32;;;;;;;58.88;23.10;;;1.80;99.90;;;0.23;100.00;103956.84;4955169;28;20039;-72
2022/03/20 01:36:58;;;;;;;59.20;22.45;;;1.90;99.90;;;0.30;100.00;103950.25;4953635;28;20077;-72
2022/03/20 01:39:24;;;;;;;52.83;20.85;;;1.90;99.90;;;0.33;100.00;103955.59;4951533;28;20472;-72
2022/03/20 01:41:51;;;;;;;62.60;22.15;;;1.90;99.90;;;0.33;100.00;103943.53;4942811;28;20438;-72
2022/03/20 01:44:16;;;;;;;54.08;20.77;;;2.00;99.90;;;0.38;100.00;103943.75;4952144;28;20035;-72
2022/03/20 01:46:42;;;;;;;57.47;21.20;;;2.00;99.90;;;0.43;100.00;103950.00;4951573;28;20047;-72
2022/03/20 01:49:09;;;;;;;52.63;21.10;;;2.00;99.90;;;0.42;100.00;103937.00;4942354;28;20090;-73
2022/03/20 01:54:21;;;;;;;60.95;22.98;;;2.00;99.90;;;0.35;100.00;103941.03;4950377;28;20114;-72
2022/03/20 01:56:49;;;;;;;59.10;21.00;;;1.90;99.90;;;0.32;100.00;103933.97;4950956;28;20434;-73
2022/03/20 01:59:17;;;;;;;58.65;22.33;;;1.90;99.90;;;0.27;100.00;103930.28;4934768;28;20029;-72
2022/03/20 02:01:44;;;;;;;65.30;23.38;;;1.80;99.90;;;0.20;100.00;103934.28;4953146;28;20035;-72
2022/03/20 02:04:16;;;;;;;62.63;22.95;;;1.80;99.90;;;0.15;100.00;103917.63;4951615;28;20048;-73
2022/03/20 02:06:43;;;;;;;62.75;21.77;;;1.80;99.90;;;0.13;100.00;103928.72;4950494;28;20042;-72
2022/03/20 02:09:11;;;;;;;50.88;20.92;;;1.80;99.90;;;0.12;100.00;103930.44;4951542;28;20030;-72
2022/03/20 02:11:37;;;;;;;59.72;22.25;;;1.70;99.90;;;0.06;100.00;103916.28;4942292;28;20408;-72
2022/03/20 02:14:06;;;;;;;48.28;21.80;;;1.70;99.90;;;0.04;100.00;103916.22;4950337;28;20046;-73
2022/03/20 02:16:32;;;;;;;64.00;21.55;;;1.70;99.90;;;0.03;100.00;103922.22;4950319;28;20089;-73
2022/03/20 02:18:59;;;;;;;92.10;32.70;;;1.70;99.90;;;0.07;100.00;103928.44;4952532;28;20809;-72
2022/03/20 02:21:47;;;;;;;71.35;26.75;;;1.70;99.90;;;0.04;100.00;103925.69;4951092;28;20102;-73
2022/03/20 02:24:41;;;;;;;59.80;22.75;;;1.70;99.90;;;-0.04;100.00;103915.84;4950828;28;20164;-72
2022/03/20 02:27:22;;;;;;;53.22;21.67;;;1.60;99.90;;;-0.04;100.00;103920.16;4958431;28;20063;-73
2022/03/20 02:29:52;;;;;;;52.78;22.15;;;1.60;99.90;;;-0.11;100.00;103912.88;4950675;28;20059;-72
2022/03/20 02:32:28;;;;;;;55.20;22.75;;;1.60;99.90;;;-0.10;100.00;103917.25;4952351;28;20027;-73
2022/03/20 02:35:03;;;;;;;55.78;21.25;;;1.50;99.90;;;-0.13;100.00;103914.50;4950059;28;20031;-72
2022/03/20 02:37:29;;;;;;;70.20;23.55;;;1.40;99.90;;;-0.22;100.00;103917.53;4949840;28;20039;-73
2022/03/20 02:40:03;;;;;;;52.70;22.77;;;1.40;99.90;;;-0.28;100.00;103902.59;4935087;28;20085;-72
2022/03/20 02:42:30;;;;;;;53.40;22.17;;;1.40;99.90;;;-0.33;100.00;103908.34;4941186;28;20065;-72
2022/03/20 02:45:00;;;;;;;64.55;23.65;;;1.20;99.90;;;-0.45;100.00;103903.47;4950288;28;20038;-72
2022/03/20 02:47:40;;;;;;;63.83;23.73;;;1.20;99.90;;;-0.52;100.00;103902.28;4952115;28;20046;-71
2022/03/20 02:50:25;;;;;;;62.95;23.90;;;1.20;99.90;;;-0.58;100.00;103903.63;4951904;28;20051;-73
2022/03/20 02:53:04;;;;;;;56.97;22.53;;;1.00;99.90;;;-0.67;100.00;103899.81;4952266;28;20049;-73
2022/03/20 02:55:37;;;;;;;60.25;22.92;;;1.00;99.90;;;-0.75;100.00;103898.53;4960751;28;20082;-73
2022/03/20 02:58:07;;;;;;;64.10;24.42;;;0.90;99.90;;;-0.83;100.00;103897.22;4957330;28;20043;-73
2022/03/20 03:00:34;;;;;;;59.30;22.98;;;0.90;99.90;;;-0.83;100.00;103894.66;4948258;28;20051;-72
2022/03/20 03:03:04;;;;;;;70.93;23.95;;;0.80;99.90;;;-0.88;100.00;103891.81;4934613;28;20027;-73
2022/03/20 03:05:32;;;;;;;56.53;23.98;;;0.80;99.90;;;-0.88;100.00;103890.94;4933620;28;20123;-73
2022/03/20 03:11:01;;;;;;;50.05;22.38;;;0.70;99.90;;;-1.00;100.00;103882.53;4949122;28;20049;-72
2022/03/20 03:13:40;;;;;;;69.55;25.50;;;0.70;99.90;;;-1.04;100.00;103891.81;4949398;28;20403;-72
2022/03/20 03:16:10;;;;;;;61.22;24.83;;;1.00;99.90;;;-1.08;100.00;103885.63;4950166;28;20030;-72
2022/03/20 03:18:40;;;;;;;69.40;26.45;;;0.60;99.90;;;-1.12;100.00;103888.84;4949796;28;20023;-72
2022/03/20 03:21:10;;;;;;;75.25;25.75;;;0.60;99.90;;;-1.09;100.00;103883.84;4967279;28;20108;-72
2022/03/20 03:23:37;;;;;;;81.15;27.63;;;0.60;99.90;;;-1.07;100.00;103886.50;4949937;28;20031;-73
2022/03/20 03:26:05;;;;;;;66.35;26.38;;;0.60;99.90;;;-1.12;100.00;103885.41;4943668;28;20077;-72
2022/03/20 03:28:34;;;;;;;72.43;26.98;;;0.60;99.90;;;-1.15;100.00;103891.25;4950241;28;20023;-72
2022/03/20 03:31:05;;;;;;;67.00;27.35;;;0.60;99.90;;;-1.12;100.00;103883.69;4941084;28;20484;-73
2022/03/20 03:33:31;;;;;;;58.47;24.30;;;0.60;99.90;;;-1.13;100.00;103887.06;4948318;28;20046;-72
2022/03/20 03:35:57;;;;;;;66.13;25.27;;;0.60;99.90;;;-1.13;100.00;103888.78;4934744;28;20030;-72
2022/03/20 03:38:34;;;;;;;70.95;26.67;;;0.60;99.90;;;-1.14;100.00;103882.72;4950415;28;20480;-72
2022/03/20 03:41:01;;;;;;;62.08;26.80;;;0.50;99.90;;;-1.17;100.00;103890.28;4949324;28;20019;-72
2022/03/20 03:43:27;;;;;;;70.40;26.17;;;0.50;99.90;;;-1.18;100.00;103885.06;4946765;28;20496;-71
2022/03/20 03:45:53;;;;;;;60.95;25.38;;;0.50;99.90;;;-1.20;100.00;103897.03;4951429;28;20046;-71
2022/03/20 03:48:21;;;;;;;65.00;26.17;;;0.50;99.90;;;-1.22;100.00;103884.00;4949306;28;20519;-72
2022/03/20 03:50:50;;;;;;;56.40;25.35;;;0.40;99.90;;;-1.26;100.00;103882.06;4949361;28;20097;-71
2022/03/20 03:53:16;;;;;;;72.38;27.08;;;0.40;99.90;;;-1.31;100.00;103875.78;4950421;28;20141;-71
2022/03/20 03:55:43;;;;;;;64.25;26.35;;;0.40;99.90;;;-1.29;100.00;103887.09;4948497;28;20061;-71
2022/03/20 03:58:11;;;;;;;64.13;26.33;;;0.40;99.90;;;-1.26;100.00;103879.47;4949631;28;20102;-71
2022/03/20 04:00:37;;;;;;;59.55;26.60;;;0.40;99.90;;;-1.22;100.00;103886.59;4950722;28;20038;-71
2022/03/20 04:03:03;;;;;;;61.08;27.63;;;0.40;99.90;;;-1.21;100.00;103888.34;4948736;28;20023;-71
2022/03/20 04:05:30;;;;;;;55.45;27.38;;;0.50;99.90;;;-1.20;100.00;103884.97;4948800;28;20027;-71
2022/03/20 04:07:56;;;;;;;63.78;27.33;;;0.50;99.90;;;-1.17;100.00;103882.53;4950467;28;20026;-71
2022/03/20 04:10:24;;;;;;;61.58;27.40;;;0.50;99.90;;;-1.17;100.00;103884.25;4948558;28;20038;-71
2022/03/20 04:12:50;;;;;;;65.85;27.85;;;0.60;99.90;;;-1.16;100.00;103881.75;4948342;28;20074;-71
2022/03/20 04:15:24;;;;;;;58.13;26.30;;;0.50;99.90;;;-1.14;100.00;103885.31;4950669;28;20368;-71
2022/03/20 04:17:51;;;;;;;62.47;26.88;;;0.50;99.90;;;-1.13;100.00;103881.91;4951518;28;20109;-71
2022/03/20 04:20:17;;;;;;;61.92;27.60;;;0.50;99.90;;;-1.14;100.00;103879.25;4950814;28;20030;-70
2022/03/20 04:25:29;;;;;;;60.50;25.70;;;0.50;99.90;;;-1.18;100.00;103896.28;4949059;28;20097;-70
2022/03/20 04:27:57;;;;;;;59.78;26.75;;;0.50;99.90;;;-1.14;100.00;103887.88;4951351;28;20019;-70
2022/03/20 04:30:28;;;;;;;58.85;27.08;;;0.50;99.90;;;-1.14;100.00;103893.06;4949136;28;20026;-71
2022/03/20 04:32:56;;;;;;;62.70;26.92;;;0.60;99.90;;;-1.12;100.00;103890.56;4947668;28;20038;-71
2022/03/20 04:35:23;;;;;;;57.38;26.20;;;0.60;99.90;;;-1.12;100.00;103898.31;4950902;28;20143;-71
2022/03/20 04:37:55;;;;;;;52.70;25.17;;;0.60;99.90;;;-1.08;100.00;103893.38;4947807;28;20383;-70
2022/03/20 04:40:21;;;;;;;58.97;25.58;;;0.60;99.90;;;-1.08;100.00;103893.38;4942624;28;20021;-70
2022/03/20 04:42:51;;;;;;;56.42;25.75;;;0.60;99.90;;;-1.09;100.00;103891.59;4957924;28;20415;-69
2022/03/20 04:45:18;;;;;;;55.22;25.23;;;0.60;99.90;;;-1.12;100.00;103898.31;4956171;28;20030;-70
2022/03/20 04:58:43;;;;;;;49.15;24.38;;;0.50;99.90;;;-1.25;100.00;103894.19;4939280;28;20048;-70
2022/03/20 05:01:10;;;;;;;65.70;25.30;;;0.40;99.90;;;-1.31;100.00;103901.63;4952083;28;20039;-70
2022/03/20 05:03:36;;;;;;;59.22;24.50;;;0.50;99.90;;;-1.34;100.00;103898.84;4953783;28;20019;-70
2022/03/20 05:06:05;;;;;;;49.10;24.88;;;0.30;99.90;;;-1.38;100.00;103889.16;4953749;28;20058;-70
2022/03/20 05:08:35;;;;;;;55.10;26.50;;;0.30;99.90;;;-1.43;100.00;103888.03;4954556;28;20118;-69
2022/03/20 05:13:47;;;;;;;61.47;26.60;;;0.20;99.90;;;-1.45;100.00;103886.28;4934548;28;20056;-70
2022/03/20 05:16:13;;;;;;;55.35;25.10;;;0.20;99.90;;;-1.40;100.00;103885.59;4956040;28;20567;-70
2022/03/20 05:18:39;;;;;;;61.47;27.77;;;0.20;99.90;;;-1.42;100.00;103882.94;4952496;28;20087;-70
2022/03/20 05:21:05;;;;;;;63.95;27.02;;;0.30;99.90;;;-1.37;100.00;103876.31;4944354;28;20110;-70
2022/03/20 05:23:33;;;;;;;62.75;28.67;;;0.30;99.90;;;-1.33;100.00;103885.13;4953470;28;20289;-70
2022/03/20 05:25:59;;;;;;;61.70;26.52;;;0.30;99.90;;;-1.26;100.00;103879.47;4946848;28;20039;-69
2022/03/20 05:28:25;;;;;;;55.78;25.77;;;0.40;99.90;;;-1.18;100.00;103880.78;4943586;28;20026;-70
2022/03/20 05:30:51;;;;;;;62.75;27.02;;;0.40;99.90;;;-1.13;100.00;103887.06;4953571;28;20051;-70
2022/03/20 05:33:18;;;;;;;58.75;26.25;;;0.50;99.90;;;-1.05;100.00;103890.06;4951844;28;20091;-69
2022/03/20 05:35:45;;;;;;;56.78;25.58;;;0.50;99.90;;;-0.96;100.00;103890.53;4951660;28;20425;-69
2022/03/20 05:38:12;;;;;;;53.00;26.17;;;0.60;99.90;;;-0.82;100.00;103899.03;4952786;28;20038;-70
2022/03/20 05:40:40;;;;;;;59.88;25.65;;;0.70;99.90;;;-0.74;100.00;103899.41;4950949;28;20053;-70
2022/03/20 05:43:09;;;;;;;52.05;25.05;;;0.70;99.90;;;-0.72;100.00;103896.06;4926982;28;20041;-70
2022/03/20 05:45:39;;;;;;;49.75;24.20;;;0.70;99.90;;;-0.65;100.00;103899.84;4949268;28;20035;-71
2022/03/20 05:48:08;;;;;;;54.25;25.63;;;0.80;99.90;;;-0.53;100.00;103891.84;4952280;28;20081;-69
2022/03/20 05:50:35;;;;;;;45.00;19.88;;;0.80;99.90;;;-0.59;100.00;103896.69;4949949;28;20031;-70
2022/03/20 05:53:01;;;;;;;54.90;24.55;;;0.90;99.90;;;-0.47;100.00;103895.63;4952619;28;20046;-70
2022/03/20 05:58:13;;;;;;;48.83;23.70;;;1.20;99.90;;;0.75;100.00;103903.94;4954639;28;20038;-71
2022/03/20 06:00:41;;;;;;;51.42;23.52;;;1.40;99.90;;;0.53;100.00;103902.97;4951633;28;20494;-70
2022/03/20 06:03:11;;;;;;;44.97;22.77;;;1.60;99.90;;;0.93;100.00;103898.66;4953263;28;20038;-70
2022/03/20 06:05:38;;;;;;;52.08;23.83;;;1.80;99.90;;;1.81;100.00;103905.88;4950330;28;20031;-71
2022/03/20 06:08:05;;;;;;;53.38;23.25;;;1.90;99.90;;;1.39;100.00;103896.38;4950951;28;20030;-70
2022/03/20 06:10:33;;;;;;;41.25;21.98;;;2.20;99.90;;;2.81;100.00;103901.94;4952574;28;20373;-70
2022/03/20 06:12:59;;;;;;;45.38;22.48;;;2.70;99.90;;;5.61;97.63;103900.91;4953874;28;20027;-70
2022/03/20 06:15:26;;;;;;;45.80;23.23;;;3.30;99.90;;;5.36;88.41;103896.81;4952350;28;20033;-70
2022/03/20 06:17:52;;;;;;;45.15;21.80;;;3.60;99.90;;;3.43;86.33;103900.63;4953887;28;20031;-71
2022/03/20 06:20:18;;;;;;;52.50;22.90;;;3.80;99.90;;;5.18;86.49;103910.25;4952974;28;20031;-70
2022/03/20 06:22:45;;;;;;;54.47;19.38;;;4.30;99.90;;;8.02;77.22;103910.13;4935040;28;20035;-71
2022/03/20 06:25:15;;;;;;;39.95;20.42;;;5.10;99.90;;;8.87;68.11;103896.38;4951471;28;20022;-72
2022/03/20 06:27:45;;;;;;;44.17;19.90;;;5.70;99.90;;;7.25;68.58;103897.47;4950128;28;20432;-71
2022/03/20 06:30:14;;;;;;;41.25;20.38;;;5.80;99.90;;;6.88;70.51;103910.75;4951239;28;20496;-71
2022/03/20 06:32:41;;;;;;;38.13;19.30;;;5.80;99.90;;;7.22;69.43;103905.28;4948741;28;20034;-71
2022/03/20 06:35:09;;;;;;;33.35;17.73;;;5.90;99.90;;;8.15;65.88;103905.94;4950693;28;20108;-71
2022/03/20 06:37:38;;;;;;;40.72;19.08;;;6.20;99.90;;;7.69;65.48;103902.59;4950627;28;20026;-72
2022/03/20 06:40:07;;;;;;;39.72;18.58;;;6.10;99.90;;;7.05;66.54;103911.09;4960222;28;20114;-71
2022/03/20 06:42:33;;;;;;;43.72;20.25;;;6.80;99.90;;;12.45;58.67;103929.44;4956665;28;20033;-73
2022/03/20 06:45:01;;;;;;;34.28;16.70;;;8.00;99.90;;;14.00;50.95;103916.97;4951745;28;20074;-73
2022/03/20 06:47:28;;;;;;;41.95;18.02;;;8.90;99.90;;;15.02;47.14;103936.97;4948932;28;20101;-73
2022/03/20 06:49:55;;;;;;;38.70;17.60;;;10.10;99.90;;;17.08;43.32;103951.81;4942993;28;20038;-72
2022/03/20 06:52:23;;;;;;;28.90;15.25;;;11.20;99.90;;;16.79;41.33;103953.31;4956572;28;20026;-73
2022/03/20 06:54:50;;;;;;;26.33;15.02;;;12.10;99.90;;;17.30;39.98;103963.72;4952264;28;20038;-73
2022/03/20 06:57:20;;;;;;;36.30;17.65;;;12.70;99.90;;;18.76;38.94;103989.19;4950360;28;20034;-73
2022/03/20 06:59:46;;;;;;;28.13;14.23;;;13.20;99.90;;;18.26;37.64;103991.53;4941666;28;20043;-73
2022/03/20 07:02:12;;;;;;;33.60;17.27;;;13.10;98.60;;;17.72;38.76;103990.22;4948185;28;20023;-72
2022/03/20 07:04:39;;;;;;;33.03;17.63;;;13.50;99.90;;;19.06;38.05;104007.94;4952613;28;20034;-73
2022/03/20 07:07:05;;;;;;;29.42;16.17;;;13.70;97.90;;;18.57;37.35;104010.19;4950565;28;20889;-73
2022/03/20 07:09:31;;;;;;;29.05;16.75;;;13.90;97.10;;;18.34;36.89;104018.88;4948679;28;20084;-74
2022/03/20 07:11:57;;;;;;;22.65;12.13;;;14.00;95.70;;;16.72;36.94;104021.75;4951240;28;20054;-73
2022/03/20 07:14:23;;;;;;;29.48;16.42;;;13.70;94.40;;;16.81;38.13;104021.59;4951640;28;20051;-73
2022/03/20 07:16:50;;;;;;;31.95;16.40;;;13.60;95.50;;;17.27;38.08;104030.38;4950529;28;20034;-73
2022/03/20 07:19:16;;;;;;;30.77;17.02;;;13.90;94.80;;;17.17;37.74;104026.16;4953357;28;20030;-73
2022/03/20 07:21:42;;;;;;;25.23;12.63;;;14.10;93.40;;;16.54;37.17;104028.31;4951226;28;20027;-73
2022/03/20 07:24:08;;;;;;;29.92;16.48;;;14.10;94.40;;;17.53;37.72;104037.75;4948448;28;20522;-72
2022/03/20 07:29:31;;;;;;;31.48;15.63;;;15.40;93.90;;;18.68;35.41;104043.72;4955998;28;20210;-73
2022/03/20 07:32:04;;;;;;;24.88;12.93;;;15.40;90.30;;;16.79;34.80;104043.78;4962145;28;20121;-73
2022/03/20 07:34:31;;;;;;;24.08;10.93;;;14.80;89.20;;;15.20;36.83;104031.38;4942306;28;20066;-73
2022/03/20 07:36:57;;;;;;;24.95;12.75;;;14.20;91.50;;;15.24;38.85;104022.47;4948329;28;20058;-73
2022/03/20 07:39:23;;;;;;;26.08;12.02;;;14.40;91.30;;;15.89;37.14;104041.00;4951514;28;20058;-74
2022/03/20 07:41:49;;;;;;;21.60;11.57;;;13.90;91.20;;;14.45;39.55;104028.69;4949040;28;20026;-73
2022/03/20 07:44:16;;;;;;;27.23;15.18;;;14.10;92.10;;;16.05;38.77;104037.19;4950313;28;20023;-73
2022/03/20 07:46:43;;;;;;;28.65;15.75;;;14.80;91.60;;;16.56;37.90;104045.09;4935068;28;20049;-73
2022/03/20 07:49:09;;;;;;;26.65;14.80;;;14.50;90.40;;;15.35;38.53;104039.13;4950560;28;20034;-75
2022/03/20 07:51:36;;;;;;;27.25;14.77;;;14.60;90.60;;;15.19;38.81;104041.13;4932303;28;20031;-74
2022/03/20 07:54:03;;;;;;;28.20;15.35;;;15.20;91.40;;;16.40;37.99;104052.50;4946970;28;20097;-74
2022/03/20 07:56:34;;;;;;;23.95;14.60;;;15.70;91.00;;;17.15;36.88;104059.94;4934883;28;20029;-73
2022/03/20 07:59:05;;;;;;;27.02;14.13;;;15.30;85.40;;;15.46;37.89;104052.25;4940478;28;20085;-74
2022/03/20 08:01:33;;;;;;;21.25;11.30;;;15.50;84.80;;;14.51;37.48;104054.25;4938376;28;20603;-73
2022/03/20 08:04:01;;;;;;;27.77;12.40;;;15.90;87.00;;;15.87;36.49;104056.09;4934395;28;20031;-74
2022/03/20 08:06:27;;;;;;;25.23;14.35;;;15.80;84.30;;;15.23;37.15;104069.38;4949531;28;20035;-75
2022/03/20 08:08:54;;;;;;;20.42;10.23;;;15.80;81.50;;;14.51;36.12;104064.84;4949249;28;20015;-74
2022/03/20 08:11:20;;;;;;;27.02;12.98;;;15.80;84.10;;;15.47;36.50;104080.56;4934090;28;20058;-74
2022/03/20 08:13:47;;;;;;;31.17;14.20;;;15.70;81.90;;;15.46;36.56;104074.34;4950548;28;20126;-75
2022/03/20 08:16:16;;;;;;;22.95;12.38;;;15.00;77.80;;;13.65;37.41;104077.06;4932945;28;20046;-74
2022/03/20 08:18:45;;;;;;;27.38;14.45;;;14.90;79.00;;;14.00;37.12;104077.72;4947884;28;20051;-73
2022/03/20 08:21:12;;;;;;;27.83;13.80;;;15.40;80.80;;;14.11;36.40;104066.13;4949994;28;20031;-74
2022/03/20 08:23:40;;;;;;;27.65;13.60;;;14.80;80.30;;;13.94;37.64;104068.88;4952943;28;20500;-73
2022/03/20 08:26:09;;;;;;;23.02;13.52;;;15.20;81.20;;;14.56;37.11;104073.69;4955901;28;20037;-73
2022/03/20 08:28:47;;;;;;;21.48;12.13;;;15.20;78.30;;;13.12;36.57;104080.81;4951152;28;20057;-73
2022/03/20 08:31:14;;;;;;;29.00;13.50;;;15.00;77.60;;;13.42;37.50;104086.91;4956117;28;20030;-73
2022/03/20 08:33:40;;;;;;;22.33;11.45;;;15.20;79.60;;;13.23;37.66;104091.34;4964989;28;20523;-72
2022/03/20 08:36:07;;;;;;;25.00;12.80;;;15.20;78.10;;;13.50;37.27;104083.31;4945951;28;20031;-72
2022/03/20 08:38:34;;;;;;;22.98;12.60;;;14.90;77.70;;;13.35;37.86;104088.69;4952085;28;20034;-73
2022/03/20 08:41:01;;;;;;;25.23;13.60;;;15.00;78.10;;;13.39;37.45;104086.88;4953883;28;20105;-72
2022/03/20 08:43:27;;;;;;;31.00;14.88;;;15.00;79.00;;;13.54;37.65;104094.75;4936426;28;20065;-74
2022/03/20 08:45:53;;;;;;;26.40;13.85;;;15.00;79.10;;;13.42;37.95;104092.19;4952747;28;20038;-72
2022/03/20 08:48:19;;;;;;;21.65;10.93;;;14.90;79.20;;;12.57;38.36;104087.13;4938549;28;20041;-72
2022/03/20 08:50:50;;;;;;;18.90;11.95;;;14.70;78.20;;;12.92;37.89;104091.47;4952869;28;20181;-72
2022/03/20 08:53:20;;;;;;;22.85;13.48;;;14.20;77.70;;;12.42;38.59;104087.13;4951715;28;20039;-72
2022/03/20 08:55:47;;;;;;;25.30;11.52;;;14.00;78.40;;;11.85;38.07;104082.69;4952591;28;20027;-72
2022/03/20 08:58:14;;;;;;;24.73;12.80;;;13.40;78.50;;;11.48;39.29;104079.94;4936507;28;21155;-73
2022/03/20 09:00:41;;;;;;;23.25;12.98;;;13.10;79.60;;;11.20;39.60;104072.81;4953532;28;20034;-72
2022/03/20 09:03:10;;;;;;;23.42;12.23;;;12.80;80.10;;;11.09;39.40;104064.88;4967034;28;20117;-72
2022/03/20 09:05:37;;;;;;;24.88;12.88;;;12.70;80.70;;;11.27;39.59;104074.59;4952070;28;20015;-72
2022/03/20 09:08:05;;;;;;;26.13;13.48;;;12.50;78.70;;;11.24;38.83;104072.84;4944764;28;20023;-72
2022/03/20 09:10:33;;;;;;;20.45;11.95;;;12.70;79.80;;;11.26;38.33;104078.13;4959889;28;20484;-73
2022/03/20 09:13:00;;;;;;;28.45;12.32;;;12.50;78.80;;;11.12;38.17;104072.78;4951247;28;20055;-73
2022/03/20 09:15:29;;;;;;;18.33;9.00;;;12.10;78.50;;;10.26;38.38;104074.88;4953000;28;20081;-72
2022/03/20 09:20:42;;;;;;;21.92;12.40;;;12.10;80.00;;;10.94;39.04;104065.66;4955582;28;20045;-72
2022/03/20 09:23:11;;;;;;;21.17;12.65;;;12.10;78.40;;;11.01;37.95;104069.22;4955697;28;20027;-72
2022/03/20 09:25:37;;;;;;;19.20;9.02;;;11.70;77.80;;;9.87;38.08;104063.09;4969108;28;20031;-73
2022/03/20 09:28:07;;;;;;;21.52;12.48;;;11.20;78.20;;;9.90;38.55;104052.59;4951074;28;20031;-72
2022/03/20 09:30:34;;;;;;;21.60;12.55;;;11.00;80.20;;;9.59;39.20;104048.75;4944546;28;20038;-72
2022/03/20 09:33:02;;;;;;;20.02;11.32;;;10.80;82.10;;;9.33;40.42;104051.09;4950192;28;20050;-72
2022/03/20 09:35:28;;;;;;;22.30;12.63;;;10.30;81.20;;;8.69;41.46;104049.41;4969699;28;20082;-72
2022/03/20 09:37:54;;;;;;;28.17;12.75;;;10.30;85.80;;;8.89;42.07;104038.31;4954384;28;20512;-73
2022/03/20 09:40:22;;;;;;;25.75;13.20;;;9.90;85.00;;;8.38;43.09;104040.16;4944273;28;20045;-72
2022/03/20 09:42:49;;;;;;;20.33;10.90;;;9.90;86.40;;;8.32;43.51;104029.56;4950767;28;20034;-73
2022/03/20 09:45:19;;;;;;;23.90;12.85;;;9.90;86.60;;;8.69;42.97;104025.78;4942237;28;20065;-72
2022/03/20 09:47:45;;;;;;;23.55;12.63;;;10.10;86.50;;;8.80;42.99;104028.56;4942703;28;20038;-72
2022/03/20 09:50:14;;;;;;;18.90;11.27;;;10.20;86.50;;;8.71;42.39;104042.44;4936547;28;20031;-72
2022/03/20 09:52:42;;;;;;;21.13;9.75;;;10.00;86.80;;;8.36;43.34;104016.50;4949696;28;20066;-73
2022/03/20 09:55:10;;;;;;;24.95;12.60;;;10.00;86.20;;;8.54;43.18;104034.31;4950326;28;20492;-72
2022/03/20 09:57:36;;;;;;;27.17;13.32;;;9.90;85.90;;;8.40;43.44;104025.28;4951267;28;20053;-73
2022/03/20 10:00:11;;;;;;;26.88;13.90;;;9.90;87.10;;;8.63;43.87;104028.31;4936750;28;20150;-73
2022/03/20 10:02:38;;;;;;;25.58;13.27;;;10.00;88.60;;;8.75;43.83;104020.59;4951097;28;20977;-72
2022/03/20 10:05:07;;;;;;;25.20;12.63;;;10.20;89.50;;;9.20;44.12;104016.81;4944154;28;20043;-72
2022/03/20 10:07:40;;;;;;;23.48;12.80;;;10.30;88.10;;;9.17;43.08;104014.13;4949342;28;20039;-72
2022/03/20 10:10:07;;;;;;;19.05;9.27;;;10.20;84.90;;;8.58;42.09;104015.13;4952967;28;20120;-73
2022/03/20 10:12:35;;;;;;;23.60;13.52;;;10.20;85.90;;;8.91;42.65;104013.78;4951715;28;20112;-73
2022/03/20 10:15:02;;;;;;;28.23;13.40;;;10.30;86.50;;;9.14;42.74;104010.59;4933159;28;20032;-72
2022/03/20 10:17:29;;;;;;;23.20;11.13;;;10.40;86.50;;;8.95;42.69;104014.72;4920604;28;20031;-72
2022/03/20 10:20:17;;;;;;;29.13;13.65;;;10.50;88.50;;;9.44;43.77;104000.41;4952432;28;20148;-73
2022/03/20 10:22:44;;;;;;;23.40;11.30;;;10.80;89.10;;;9.51;43.19;104003.09;4949819;28;22688;-72
2022/03/20 10:25:12;;;;;;;21.08;11.55;;;10.70;85.20;;;9.43;41.68;104011.78;4948578;28;20055;-72
2022/03/20 10:27:40;;;;;;;22.02;9.02;;;10.70;83.60;;;9.22;41.53;104015.06;4925607;28;20026;-73
2022/03/20 10:30:14;;;;;;;24.33;13.27;;;10.60;83.30;;;9.23;41.69;104011.56;4951520;28;20035;-73
2022/03/20 10:32:49;;;;;;;25.08;12.65;;;10.60;85.40;;;9.45;42.36;104012.66;4948512;28;20019;-72
2022/03/20 10:35:18;;;;;;;23.98;12.27;;;10.80;87.90;;;9.59;43.10;103998.78;4941261;28;20130;-72
2022/03/20 10:37:55;;;;;;;24.75;12.02;;;10.90;84.30;;;9.70;41.47;103990.97;4950654;28;20038;-73